sensor_id;sensor_type;location;lat;lon;timestamp;P1;durP1;ratioP1;P2;durP2;ratioP2
20505;SDS011;10411;48.148;7.704;2022-12-18T00:00:55;78.43;;;38.40;;
20505;SDS011;10411;48.148;7.704;2022-12-18T00:03:21;132.70;;;37.87;;
20505;SDS011;10411;48.148;7.704;2022-12-18T00:05:47;163.57;;;55.70;;
20505;SDS011;10411;48.148;7.704;2022-12-18T00:08:13;101.03;;;55.00;;
20505;SDS011;10411;48.148;7.704;2022-12-18T00:10:39;72.70;;;44.10;;
20505;SDS011;10411;48.148;7.704;2022-12-18T00:13:05;79.97;;;39.70;;
20505;SDS011;10411;48.148;7.704;2022-12-18T00:15:33;65.73;;;40.77;;
20505;SDS011;10411;48.148;7.704;2022-12-18T00:17:59;91.67;;;38.90;;
20505;SDS011;10411;48.148;7.704;2022-12-18T00:20:25;91.03;;;38.67;;
20505;SDS011;10411;48.148;7.704;2022-12-18T00:22:51;67.83;;;38.07;;
20505;SDS011;10411;48.148;7.704;2022-12-18T00:25:17;60.23;;;38.23;;
20505;SDS011;10411;48.148;7.704;2022-12-18T00:27:44;79.37;;;39.20;;
20505;SDS011;10411;48.148;7.704;2022-12-18T00:30:10;61.70;;;37.73;;
20505;SDS011;10411;48.148;7.704;2022-12-18T00:32:36;62.03;;;37.40;;
20505;SDS011;10411;48.148;7.704;2022-12-18T00:35:02;65.53;;;37.60;;
20505;SDS011;10411;48.148;7.704;2022-12-18T00:37:28;64.63;;;37.90;;
20505;SDS011;10411;48.148;7.704;2022-12-18T00:39:54;49.37;;;36.20;;
20505;SDS011;10411;48.148;7.704;2022-12-18T00:42:20;62.10;;;38.07;;
20505;SDS011;10411;48.148;7.704;2022-12-18T00:45:05;63.80;;;38.37;;
20505;SDS011;10411;48.148;7.704;2022-12-18T00:47:31;71.27;;;38.97;;
20505;SDS011;10411;48.148;7.704;2022-12-18T00:49:57;69.10;;;38.67;;
20505;SDS011;10411;48.148;7.704;2022-12-18T00:52:23;63.33;;;38.00;;
20505;SDS011;10411;48.148;7.704;2022-12-18T00:54:49;63.77;;;37.53;;
20505;SDS011;10411;48.148;7.704;2022-12-18T00:57:15;54.53;;;36.67;;
20505;SDS011;10411;48.148;7.704;2022-12-18T00:59:41;62.00;;;37.13;;
20505;SDS011;10411;48.148;7.704;2022-12-18T01:02:07;62.80;;;39.07;;
20505;SDS011;10411;48.148;7.704;2022-12-18T01:04:32;72.07;;;39.03;;
20505;SDS011;10411;48.148;7.704;2022-12-18T01:06:58;73.90;;;39.00;;
20505;SDS011;10411;48.148;7.704;2022-12-18T01:09:24;84.17;;;39.83;;
20505;SDS011;10411;48.148;7.704;2022-12-18T01:11:51;68.03;;;38.77;;
20505;SDS011;10411;48.148;7.704;2022-12-18T01:14:17;60.97;;;38.63;;
20505;SDS011;10411;48.148;7.704;2022-12-18T01:16:43;60.87;;;39.37;;
20505;SDS011;10411;48.148;7.704;2022-12-18T01:19:08;57.67;;;38.13;;
20505;SDS011;10411;48.148;7.704;2022-12-18T01:21:35;58.50;;;37.63;;
20505;SDS011;10411;48.148;7.704;2022-12-18T01:24:01;60.20;;;38.27;;
20505;SDS011;10411;48.148;7.704;2022-12-18T01:26:27;59.77;;;37.37;;
20505;SDS011;10411;48.148;7.704;2022-12-18T01:28:55;66.13;;;38.53;;
20505;SDS011;10411;48.148;7.704;2022-12-18T01:33:47;126.87;;;38.37;;
20505;SDS011;10411;48.148;7.704;2022-12-18T01:36:21;95.50;;;37.73;;
20505;SDS011;10411;48.148;7.704;2022-12-18T01:38:47;61.63;;;38.40;;
20505;SDS011;10411;48.148;7.704;2022-12-18T01:41:14;70.43;;;38.53;;
20505;SDS011;10411;48.148;7.704;2022-12-18T01:43:41;130.13;;;38.50;;
20505;SDS011;10411;48.148;7.704;2022-12-18T01:46:08;62.87;;;37.33;;
20505;SDS011;10411;48.148;7.704;2022-12-18T01:48:34;85.37;;;37.47;;
20505;SDS011;10411;48.148;7.704;2022-12-18T01:51:00;94.97;;;40.07;;
20505;SDS011;10411;48.148;7.704;2022-12-18T01:53:26;61.43;;;37.20;;
20505;SDS011;10411;48.148;7.704;2022-12-18T01:55:53;55.43;;;37.57;;
20505;SDS011;10411;48.148;7.704;2022-12-18T01:58:21;94.37;;;37.57;;
20505;SDS011;10411;48.148;7.704;2022-12-18T02:00:48;65.00;;;38.60;;
20505;SDS011;10411;48.148;7.704;2022-12-18T02:03:14;56.73;;;37.73;;
20505;SDS011;10411;48.148;7.704;2022-12-18T02:05:44;56.40;;;37.50;;
20505;SDS011;10411;48.148;7.704;2022-12-18T02:16:09;61.07;;;38.50;;
20505;SDS011;10411;48.148;7.704;2022-12-18T02:18:42;59.70;;;39.00;;
20505;SDS011;10411;48.148;7.704;2022-12-18T02:26:22;61.10;;;38.47;;
20505;SDS011;10411;48.148;7.704;2022-12-18T02:28:53;62.20;;;39.63;;
20505;SDS011;10411;48.148;7.704;2022-12-18T02:31:21;87.10;;;38.80;;
20505;SDS011;10411;48.148;7.704;2022-12-18T02:33:49;82.90;;;38.23;;
20505;SDS011;10411;48.148;7.704;2022-12-18T02:38:47;64.87;;;38.50;;
20505;SDS011;10411;48.148;7.704;2022-12-18T02:41:13;70.50;;;38.77;;
20505;SDS011;10411;48.148;7.704;2022-12-18T02:43:40;73.97;;;38.70;;
20505;SDS011;10411;48.148;7.704;2022-12-18T02:46:31;66.20;;;38.87;;
20505;SDS011;10411;48.148;7.704;2022-12-18T02:54:37;60.07;;;39.10;;
20505;SDS011;10411;48.148;7.704;2022-12-18T02:57:08;60.87;;;38.60;;
20505;SDS011;10411;48.148;7.704;2022-12-18T02:59:47;57.10;;;38.27;;
20505;SDS011;10411;48.148;7.704;2022-12-18T03:05:05;48.27;;;34.70;;
20505;SDS011;10411;48.148;7.704;2022-12-18T03:10:21;53.17;;;35.73;;
20505;SDS011;10411;48.148;7.704;2022-12-18T03:12:51;51.67;;;36.40;;
20505;SDS011;10411;48.148;7.704;2022-12-18T03:15:52;49.60;;;35.70;;
20505;SDS011;10411;48.148;7.704;2022-12-18T03:18:12;44.70;;;34.70;;
20505;SDS011;10411;48.148;7.704;2022-12-18T03:20:39;46.63;;;34.00;;
20505;SDS011;10411;48.148;7.704;2022-12-18T03:23:09;48.70;;;35.90;;
20505;SDS011;10411;48.148;7.704;2022-12-18T03:25:36;49.77;;;34.93;;
20505;SDS011;10411;48.148;7.704;2022-12-18T03:28:05;49.27;;;35.97;;
20505;SDS011;10411;48.148;7.704;2022-12-18T03:30:34;51.47;;;35.63;;
20505;SDS011;10411;48.148;7.704;2022-12-18T03:33:02;45.87;;;34.40;;
20505;SDS011;10411;48.148;7.704;2022-12-18T03:35:33;43.27;;;34.00;;
20505;SDS011;10411;48.148;7.704;2022-12-18T03:38:00;44.77;;;33.83;;
20505;SDS011;10411;48.148;7.704;2022-12-18T03:40:28;46.10;;;35.03;;
20505;SDS011;10411;48.148;7.704;2022-12-18T03:42:56;46.20;;;34.63;;
20505;SDS011;10411;48.148;7.704;2022-12-18T03:45:36;46.80;;;33.57;;
20505;SDS011;10411;48.148;7.704;2022-12-18T03:48:04;47.33;;;35.03;;
20505;SDS011;10411;48.148;7.704;2022-12-18T03:50:35;45.70;;;35.10;;
20505;SDS011;10411;48.148;7.704;2022-12-18T03:53:13;47.13;;;34.60;;
20505;SDS011;10411;48.148;7.704;2022-12-18T03:55:41;49.03;;;34.20;;
20505;SDS011;10411;48.148;7.704;2022-12-18T03:58:08;46.23;;;35.10;;
20505;SDS011;10411;48.148;7.704;2022-12-18T04:00:36;51.40;;;34.77;;
20505;SDS011;10411;48.148;7.704;2022-12-18T04:03:02;46.90;;;34.33;;
20505;SDS011;10411;48.148;7.704;2022-12-18T04:05:29;49.20;;;35.47;;
20505;SDS011;10411;48.148;7.704;2022-12-18T04:07:55;49.07;;;35.27;;
20505;SDS011;10411;48.148;7.704;2022-12-18T04:10:22;51.93;;;36.47;;
20505;SDS011;10411;48.148;7.704;2022-12-18T04:12:48;53.63;;;36.10;;
20505;SDS011;10411;48.148;7.704;2022-12-18T04:15:14;49.73;;;35.00;;
20505;SDS011;10411;48.148;7.704;2022-12-18T04:17:43;45.07;;;35.53;;
20505;SDS011;10411;48.148;7.704;2022-12-18T04:20:12;50.07;;;34.97;;
20505;SDS011;10411;48.148;7.704;2022-12-18T04:22:38;52.17;;;36.03;;
20505;SDS011;10411;48.148;7.704;2022-12-18T04:25:04;53.60;;;36.87;;
20505;SDS011;10411;48.148;7.704;2022-12-18T04:27:30;53.23;;;35.87;;
20505;SDS011;10411;48.148;7.704;2022-12-18T04:29:56;59.87;;;37.47;;
20505;SDS011;10411;48.148;7.704;2022-12-18T04:32:22;53.13;;;35.90;;
20505;SDS011;10411;48.148;7.704;2022-12-18T04:34:48;55.63;;;36.00;;
20505;SDS011;10411;48.148;7.704;2022-12-18T04:37:14;52.63;;;35.43;;
20505;SDS011;10411;48.148;7.704;2022-12-18T04:39:40;50.50;;;35.20;;
20505;SDS011;10411;48.148;7.704;2022-12-18T04:42:06;71.90;;;36.50;;
20505;SDS011;10411;48.148;7.704;2022-12-18T04:44:32;50.73;;;35.40;;
20505;SDS011;10411;48.148;7.704;2022-12-18T04:46:58;56.67;;;35.07;;
20505;SDS011;10411;48.148;7.704;2022-12-18T04:49:24;67.27;;;35.23;;
20505;SDS011;10411;48.148;7.704;2022-12-18T04:51:50;49.70;;;33.20;;
20505;SDS011;10411;48.148;7.704;2022-12-18T04:54:16;63.90;;;35.27;;
20505;SDS011;10411;48.148;7.704;2022-12-18T04:56:45;58.07;;;34.03;;
20505;SDS011;10411;48.148;7.704;2022-12-18T04:59:12;66.07;;;35.63;;
20505;SDS011;10411;48.148;7.704;2022-12-18T05:01:38;81.60;;;35.43;;
20505;SDS011;10411;48.148;7.704;2022-12-18T05:04:04;96.30;;;35.70;;
20505;SDS011;10411;48.148;7.704;2022-12-18T05:06:29;71.20;;;35.00;;
20505;SDS011;10411;48.148;7.704;2022-12-18T05:08:55;150.27;;;38.70;;
20505;SDS011;10411;48.148;7.704;2022-12-18T05:11:21;100.77;;;34.63;;
20505;SDS011;10411;48.148;7.704;2022-12-18T05:13:47;52.33;;;34.00;;
20505;SDS011;10411;48.148;7.704;2022-12-18T05:16:14;55.30;;;33.80;;
20505;SDS011;10411;48.148;7.704;2022-12-18T05:18:40;53.70;;;32.50;;
20505;SDS011;10411;48.148;7.704;2022-12-18T05:21:06;147.73;;;34.83;;
20505;SDS011;10411;48.148;7.704;2022-12-18T05:23:32;96.17;;;35.10;;
20505;SDS011;10411;48.148;7.704;2022-12-18T05:25:59;48.10;;;31.20;;
20505;SDS011;10411;48.148;7.704;2022-12-18T05:28:25;43.27;;;32.20;;
20505;SDS011;10411;48.148;7.704;2022-12-18T05:30:53;36.53;;;31.27;;
20505;SDS011;10411;48.148;7.704;2022-12-18T05:33:20;38.60;;;32.23;;
20505;SDS011;10411;48.148;7.704;2022-12-18T05:35:50;40.73;;;32.03;;
20505;SDS011;10411;48.148;7.704;2022-12-18T05:38:16;39.90;;;32.37;;
20505;SDS011;10411;48.148;7.704;2022-12-18T05:40:42;41.33;;;31.13;;
20505;SDS011;10411;48.148;7.704;2022-12-18T05:43:09;40.73;;;32.80;;
20505;SDS011;10411;48.148;7.704;2022-12-18T05:45:38;38.93;;;32.13;;
20505;SDS011;10411;48.148;7.704;2022-12-18T05:48:04;40.50;;;31.83;;
20505;SDS011;10411;48.148;7.704;2022-12-18T05:50:30;71.87;;;33.23;;
20505;SDS011;10411;48.148;7.704;2022-12-18T05:52:56;152.40;;;33.47;;
20505;SDS011;10411;48.148;7.704;2022-12-18T05:55:22;65.83;;;31.13;;
20505;SDS011;10411;48.148;7.704;2022-12-18T05:57:48;148.60;;;35.40;;
20505;SDS011;10411;48.148;7.704;2022-12-18T06:00:14;41.00;;;31.53;;
20505;SDS011;10411;48.148;7.704;2022-12-18T06:02:40;141.33;;;34.20;;
20505;SDS011;10411;48.148;7.704;2022-12-18T06:05:06;73.23;;;33.67;;
20505;SDS011;10411;48.148;7.704;2022-12-18T06:07:32;147.77;;;38.00;;
20505;SDS011;10411;48.148;7.704;2022-12-18T06:09:58;42.13;;;31.67;;
20505;SDS011;10411;48.148;7.704;2022-12-18T06:12:24;41.87;;;32.40;;
20505;SDS011;10411;48.148;7.704;2022-12-18T06:14:51;42.20;;;32.13;;
20505;SDS011;10411;48.148;7.704;2022-12-18T06:17:16;37.57;;;31.50;;
20505;SDS011;10411;48.148;7.704;2022-12-18T06:19:43;38.17;;;30.80;;
20505;SDS011;10411;48.148;7.704;2022-12-18T06:22:09;37.60;;;30.97;;
20505;SDS011;10411;48.148;7.704;2022-12-18T06:24:35;44.43;;;31.83;;
20505;SDS011;10411;48.148;7.704;2022-12-18T06:27:00;39.20;;;32.43;;
20505;SDS011;10411;48.148;7.704;2022-12-18T06:29:27;51.57;;;33.60;;
20505;SDS011;10411;48.148;7.704;2022-12-18T06:31:53;44.50;;;31.57;;
20505;SDS011;10411;48.148;7.704;2022-12-18T06:34:19;49.00;;;33.40;;
20505;SDS011;10411;48.148;7.704;2022-12-18T06:36:45;46.17;;;34.13;;
20505;SDS011;10411;48.148;7.704;2022-12-18T06:39:11;51.33;;;32.83;;
20505;SDS011;10411;48.148;7.704;2022-12-18T06:41:36;62.63;;;32.73;;
20505;SDS011;10411;48.148;7.704;2022-12-18T06:44:02;51.10;;;32.23;;
20505;SDS011;10411;48.148;7.704;2022-12-18T06:58:08;43.33;;;33.43;;
20505;SDS011;10411;48.148;7.704;2022-12-18T07:04:05;89.67;;;33.87;;
20505;SDS011;10411;48.148;7.704;2022-12-18T07:12:00;50.53;;;33.17;;
20505;SDS011;10411;48.148;7.704;2022-12-18T07:21:04;98.33;;;35.00;;
20505;SDS011;10411;48.148;7.704;2022-12-18T07:26:47;71.83;;;35.53;;
20505;SDS011;10411;48.148;7.704;2022-12-18T07:29:13;44.13;;;33.43;;
20505;SDS011;10411;48.148;7.704;2022-12-18T07:31:39;96.77;;;36.10;;
20505;SDS011;10411;48.148;7.704;2022-12-18T07:34:05;113.47;;;35.83;;
20505;SDS011;10411;48.148;7.704;2022-12-18T07:36:31;47.03;;;34.47;;
20505;SDS011;10411;48.148;7.704;2022-12-18T07:38:57;51.80;;;35.13;;
20505;SDS011;10411;48.148;7.704;2022-12-18T07:41:23;76.63;;;35.00;;
20505;SDS011;10411;48.148;7.704;2022-12-18T07:43:49;87.30;;;35.20;;
20505;SDS011;10411;48.148;7.704;2022-12-18T07:46:15;54.53;;;33.63;;
20505;SDS011;10411;48.148;7.704;2022-12-18T07:48:42;60.70;;;34.50;;
20505;SDS011;10411;48.148;7.704;2022-12-18T07:51:08;43.23;;;31.97;;
20505;SDS011;10411;48.148;7.704;2022-12-18T07:53:34;45.53;;;33.33;;
20505;SDS011;10411;48.148;7.704;2022-12-18T07:56:02;86.57;;;34.40;;
20505;SDS011;10411;48.148;7.704;2022-12-18T07:58:29;101.87;;;34.57;;
20505;SDS011;10411;48.148;7.704;2022-12-18T08:01:02;158.70;;;36.53;;
20505;SDS011;10411;48.148;7.704;2022-12-18T08:03:28;44.20;;;32.70;;
20505;SDS011;10411;48.148;7.704;2022-12-18T08:05:57;64.47;;;34.87;;
20505;SDS011;10411;48.148;7.704;2022-12-18T08:08:23;205.47;;;38.77;;
20505;SDS011;10411;48.148;7.704;2022-12-18T08:10:49;43.60;;;31.93;;
20505;SDS011;10411;48.148;7.704;2022-12-18T08:13:15;78.13;;;34.77;;
20505;SDS011;10411;48.148;7.704;2022-12-18T08:15:41;74.10;;;35.00;;
20505;SDS011;10411;48.148;7.704;2022-12-18T08:18:07;48.83;;;31.67;;
20505;SDS011;10411;48.148;7.704;2022-12-18T08:20:33;78.90;;;35.67;;
20505;SDS011;10411;48.148;7.704;2022-12-18T08:22:59;91.00;;;35.80;;
20505;SDS011;10411;48.148;7.704;2022-12-18T08:25:25;66.73;;;34.97;;
20505;SDS011;10411;48.148;7.704;2022-12-18T08:27:51;59.50;;;36.30;;
20505;SDS011;10411;48.148;7.704;2022-12-18T08:30:17;124.30;;;38.50;;
20505;SDS011;10411;48.148;7.704;2022-12-18T08:32:43;66.23;;;37.93;;
20505;SDS011;10411;48.148;7.704;2022-12-18T08:35:09;78.87;;;39.23;;
20505;SDS011;10411;48.148;7.704;2022-12-18T08:40:07;57.50;;;37.40;;
20505;SDS011;10411;48.148;7.704;2022-12-18T08:42:33;73.73;;;40.60;;
20505;SDS011;10411;48.148;7.704;2022-12-18T08:45:18;95.70;;;40.73;;
20505;SDS011;10411;48.148;7.704;2022-12-18T08:47:44;58.13;;;38.80;;
20505;SDS011;10411;48.148;7.704;2022-12-18T08:50:09;63.40;;;38.60;;
20505;SDS011;10411;48.148;7.704;2022-12-18T08:52:37;61.30;;;40.10;;
20505;SDS011;10411;48.148;7.704;2022-12-18T08:55:03;66.33;;;40.93;;
20505;SDS011;10411;48.148;7.704;2022-12-18T08:57:29;55.43;;;39.37;;
20505;SDS011;10411;48.148;7.704;2022-12-18T09:03:18;54.20;;;39.43;;
20505;SDS011;10411;48.148;7.704;2022-12-18T09:09:09;59.27;;;39.83;;
20505;SDS011;10411;48.148;7.704;2022-12-18T09:20:43;42.57;;;34.23;;
20505;SDS011;10411;48.148;7.704;2022-12-18T09:23:09;41.20;;;35.00;;
20505;SDS011;10411;48.148;7.704;2022-12-18T09:25:36;41.70;;;34.87;;
20505;SDS011;10411;48.148;7.704;2022-12-18T09:28:03;42.37;;;35.63;;
20505;SDS011;10411;48.148;7.704;2022-12-18T09:30:29;49.00;;;37.27;;
20505;SDS011;10411;48.148;7.704;2022-12-18T09:32:58;43.33;;;35.23;;
20505;SDS011;10411;48.148;7.704;2022-12-18T09:35:24;47.00;;;36.03;;
20505;SDS011;10411;48.148;7.704;2022-12-18T09:37:50;47.97;;;36.90;;
20505;SDS011;10411;48.148;7.704;2022-12-18T09:40:16;50.40;;;37.40;;
20505;SDS011;10411;48.148;7.704;2022-12-18T09:42:44;53.20;;;38.40;;
20505;SDS011;10411;48.148;7.704;2022-12-18T09:45:13;53.90;;;39.90;;
20505;SDS011;10411;48.148;7.704;2022-12-18T09:47:40;50.00;;;38.23;;
20505;SDS011;10411;48.148;7.704;2022-12-18T09:50:21;50.73;;;37.47;;
20505;SDS011;10411;48.148;7.704;2022-12-18T09:52:48;47.67;;;35.77;;
20505;SDS011;10411;48.148;7.704;2022-12-18T09:55:36;52.30;;;37.23;;
20505;SDS011;10411;48.148;7.704;2022-12-18T09:58:11;50.37;;;37.67;;
20505;SDS011;10411;48.148;7.704;2022-12-18T10:00:39;50.73;;;38.60;;
20505;SDS011;10411;48.148;7.704;2022-12-18T10:03:10;52.53;;;40.50;;
20505;SDS011;10411;48.148;7.704;2022-12-18T10:05:37;52.23;;;40.13;;
20505;SDS011;10411;48.148;7.704;2022-12-18T10:08:17;55.63;;;39.67;;
20505;SDS011;10411;48.148;7.704;2022-12-18T10:10:50;61.88;;;44.05;;
20505;SDS011;10411;48.148;7.704;2022-12-18T10:21:16;43.03;;;36.17;;
20505;SDS011;10411;48.148;7.704;2022-12-18T10:23:50;43.23;;;35.10;;
20505;SDS011;10411;48.148;7.704;2022-12-18T10:26:22;46.27;;;36.23;;
20505;SDS011;10411;48.148;7.704;2022-12-18T10:28:48;43.43;;;34.57;;
20505;SDS011;10411;48.148;7.704;2022-12-18T10:31:16;41.57;;;34.67;;
20505;SDS011;10411;48.148;7.704;2022-12-18T10:33:42;41.03;;;34.20;;
20505;SDS011;10411;48.148;7.704;2022-12-18T10:36:08;45.27;;;36.10;;
20505;SDS011;10411;48.148;7.704;2022-12-18T10:38:34;43.53;;;35.73;;
20505;SDS011;10411;48.148;7.704;2022-12-18T10:41:02;45.93;;;35.73;;
20505;SDS011;10411;48.148;7.704;2022-12-18T10:43:29;41.87;;;35.00;;
20505;SDS011;10411;48.148;7.704;2022-12-18T10:48:25;46.37;;;37.50;;
20505;SDS011;10411;48.148;7.704;2022-12-18T10:50:51;44.23;;;35.13;;
20505;SDS011;10411;48.148;7.704;2022-12-18T10:53:27;44.23;;;35.53;;
20505;SDS011;10411;48.148;7.704;2022-12-18T10:55:54;47.23;;;35.80;;
20505;SDS011;10411;48.148;7.704;2022-12-18T10:58:28;43.70;;;35.57;;
20505;SDS011;10411;48.148;7.704;2022-12-18T11:01:01;42.87;;;34.60;;
20505;SDS011;10411;48.148;7.704;2022-12-18T11:03:29;41.30;;;34.67;;
20505;SDS011;10411;48.148;7.704;2022-12-18T11:06:03;43.37;;;35.40;;
20505;SDS011;10411;48.148;7.704;2022-12-18T11:08:29;43.70;;;35.33;;
20505;SDS011;10411;48.148;7.704;2022-12-18T11:10:55;46.87;;;35.23;;
20505;SDS011;10411;48.148;7.704;2022-12-18T11:13:22;43.43;;;35.23;;
20505;SDS011;10411;48.148;7.704;2022-12-18T11:15:49;44.50;;;35.77;;
20505;SDS011;10411;48.148;7.704;2022-12-18T11:18:19;45.53;;;34.87;;
20505;SDS011;10411;48.148;7.704;2022-12-18T11:20:52;46.93;;;37.10;;
20505;SDS011;10411;48.148;7.704;2022-12-18T11:23:18;44.10;;;35.73;;
20505;SDS011;10411;48.148;7.704;2022-12-18T11:26:04;46.07;;;36.83;;
20505;SDS011;10411;48.148;7.704;2022-12-18T11:28:40;48.87;;;36.83;;
20505;SDS011;10411;48.148;7.704;2022-12-18T11:31:21;41.10;;;34.60;;
20505;SDS011;10411;48.148;7.704;2022-12-18T11:33:52;47.50;;;36.63;;
20505;SDS011;10411;48.148;7.704;2022-12-18T11:36:19;47.20;;;36.93;;
20505;SDS011;10411;48.148;7.704;2022-12-18T11:38:47;48.93;;;34.73;;
20505;SDS011;10411;48.148;7.704;2022-12-18T11:41:21;46.80;;;35.77;;
20505;SDS011;10411;48.148;7.704;2022-12-18T11:44:09;46.73;;;36.03;;
20505;SDS011;10411;48.148;7.704;2022-12-18T11:46:43;45.80;;;35.50;;
20505;SDS011;10411;48.148;7.704;2022-12-18T11:49:14;50.50;;;37.83;;
20505;SDS011;10411;48.148;7.704;2022-12-18T11:51:45;55.47;;;38.40;;
20505;SDS011;10411;48.148;7.704;2022-12-18T11:54:14;53.77;;;41.13;;
20505;SDS011;10411;48.148;7.704;2022-12-18T11:56:47;64.10;;;45.07;;
20505;SDS011;10411;48.148;7.704;2022-12-18T11:59:16;49.93;;;37.93;;
20505;SDS011;10411;48.148;7.704;2022-12-18T12:01:50;53.73;;;38.07;;
20505;SDS011;10411;48.148;7.704;2022-12-18T12:12:19;60.23;;;39.37;;
20505;SDS011;10411;48.148;7.704;2022-12-18T12:17:22;48.23;;;38.17;;
20505;SDS011;10411;48.148;7.704;2022-12-18T12:22:43;48.73;;;36.83;;
20505;SDS011;10411;48.148;7.704;2022-12-18T12:30:07;55.43;;;37.80;;
20505;SDS011;10411;48.148;7.704;2022-12-18T12:37:47;58.87;;;39.40;;
20505;SDS011;10411;48.148;7.704;2022-12-18T12:40:15;55.93;;;39.23;;
20505;SDS011;10411;48.148;7.704;2022-12-18T12:42:47;63.67;;;42.03;;
20505;SDS011;10411;48.148;7.704;2022-12-18T12:45:40;64.37;;;44.33;;
20505;SDS011;10411;48.148;7.704;2022-12-18T12:48:11;59.57;;;46.53;;
20505;SDS011;10411;48.148;7.704;2022-12-18T12:50:40;49.80;;;39.40;;
20505;SDS011;10411;48.148;7.704;2022-12-18T12:53:07;61.27;;;42.43;;
20505;SDS011;10411;48.148;7.704;2022-12-18T12:55:35;55.10;;;38.47;;
20505;SDS011;10411;48.148;7.704;2022-12-18T12:58:18;54.33;;;39.07;;
20505;SDS011;10411;48.148;7.704;2022-12-18T13:00:53;46.60;;;36.90;;
20505;SDS011;10411;48.148;7.704;2022-12-18T13:03:30;50.60;;;37.83;;
20505;SDS011;10411;48.148;7.704;2022-12-18T13:06:09;51.63;;;38.50;;
20505;SDS011;10411;48.148;7.704;2022-12-18T13:09:19;53.17;;;38.37;;
20505;SDS011;10411;48.148;7.704;2022-12-18T13:11:34;54.73;;;39.30;;
20505;SDS011;10411;48.148;7.704;2022-12-18T13:14:20;56.67;;;40.43;;
20505;SDS011;10411;48.148;7.704;2022-12-18T13:16:47;59.47;;;40.63;;
20505;SDS011;10411;48.148;7.704;2022-12-18T13:19:21;54.53;;;39.60;;
20505;SDS011;10411;48.148;7.704;2022-12-18T13:21:52;59.57;;;40.87;;
20505;SDS011;10411;48.148;7.704;2022-12-18T13:24:23;55.03;;;39.57;;
20505;SDS011;10411;48.148;7.704;2022-12-18T13:26:50;59.73;;;39.83;;
20505;SDS011;10411;48.148;7.704;2022-12-18T13:32:00;56.20;;;39.40;;
20505;SDS011;10411;48.148;7.704;2022-12-18T13:34:27;53.60;;;39.47;;
20505;SDS011;10411;48.148;7.704;2022-12-18T13:37:35;53.90;;;40.63;;
20505;SDS011;10411;48.148;7.704;2022-12-18T13:39:43;49.47;;;38.23;;
20505;SDS011;10411;48.148;7.704;2022-12-18T13:44:55;50.37;;;39.53;;
20505;SDS011;10411;48.148;7.704;2022-12-18T13:47:34;55.73;;;40.83;;
20505;SDS011;10411;48.148;7.704;2022-12-18T13:50:02;57.90;;;42.40;;
20505;SDS011;10411;48.148;7.704;2022-12-18T13:52:35;55.43;;;39.97;;
20505;SDS011;10411;48.148;7.704;2022-12-18T13:55:04;51.73;;;39.47;;
20505;SDS011;10411;48.148;7.704;2022-12-18T13:57:36;53.43;;;39.53;;
20505;SDS011;10411;48.148;7.704;2022-12-18T14:02:50;50.73;;;39.53;;
20505;SDS011;10411;48.148;7.704;2022-12-18T14:07:48;51.37;;;39.37;;
20505;SDS011;10411;48.148;7.704;2022-12-18T14:10:15;64.30;;;43.77;;
20505;SDS011;10411;48.148;7.704;2022-12-18T14:12:45;59.73;;;43.23;;
20505;SDS011;10411;48.148;7.704;2022-12-18T14:15:43;59.23;;;42.53;;
20505;SDS011;10411;48.148;7.704;2022-12-18T14:20:35;58.93;;;41.53;;
20505;SDS011;10411;48.148;7.704;2022-12-18T14:23:01;54.63;;;40.30;;
20505;SDS011;10411;48.148;7.704;2022-12-18T14:25:27;54.50;;;40.77;;
20505;SDS011;10411;48.148;7.704;2022-12-18T14:28:15;56.17;;;41.43;;
20505;SDS011;10411;48.148;7.704;2022-12-18T14:30:42;58.00;;;41.67;;
20505;SDS011;10411;48.148;7.704;2022-12-18T14:33:09;59.77;;;42.33;;
20505;SDS011;10411;48.148;7.704;2022-12-18T14:35:40;52.97;;;39.23;;
20505;SDS011;10411;48.148;7.704;2022-12-18T14:38:10;53.23;;;39.20;;
20505;SDS011;10411;48.148;7.704;2022-12-18T14:40:36;49.90;;;38.47;;
20505;SDS011;10411;48.148;7.704;2022-12-18T14:43:02;52.77;;;38.57;;
20505;SDS011;10411;48.148;7.704;2022-12-18T14:45:32;50.80;;;38.63;;
20505;SDS011;10411;48.148;7.704;2022-12-18T14:47:59;47.00;;;38.27;;
20505;SDS011;10411;48.148;7.704;2022-12-18T14:50:25;52.70;;;40.10;;
20505;SDS011;10411;48.148;7.704;2022-12-18T14:52:51;55.70;;;40.70;;
20505;SDS011;10411;48.148;7.704;2022-12-18T14:55:17;53.00;;;42.13;;
20505;SDS011;10411;48.148;7.704;2022-12-18T14:57:44;50.50;;;41.13;;
20505;SDS011;10411;48.148;7.704;2022-12-18T15:00:17;48.73;;;40.47;;
20505;SDS011;10411;48.148;7.704;2022-12-18T15:02:45;47.00;;;37.00;;
20505;SDS011;10411;48.148;7.704;2022-12-18T15:07:45;45.23;;;38.23;;
20505;SDS011;10411;48.148;7.704;2022-12-18T15:10:18;49.70;;;38.60;;
20505;SDS011;10411;48.148;7.704;2022-12-18T15:12:48;51.73;;;39.90;;
20505;SDS011;10411;48.148;7.704;2022-12-18T15:17:59;48.90;;;38.20;;
20505;SDS011;10411;48.148;7.704;2022-12-18T15:20:25;50.33;;;40.43;;
20505;SDS011;10411;48.148;7.704;2022-12-18T15:22:52;52.00;;;39.53;;
20505;SDS011;10411;48.148;7.704;2022-12-18T15:25:36;51.90;;;40.50;;
20505;SDS011;10411;48.148;7.704;2022-12-18T15:28:03;54.80;;;40.93;;
20505;SDS011;10411;48.148;7.704;2022-12-18T15:30:29;56.07;;;41.50;;
20505;SDS011;10411;48.148;7.704;2022-12-18T15:35:41;73.00;;;48.30;;
20505;SDS011;10411;48.148;7.704;2022-12-18T15:38:06;51.93;;;40.37;;
20505;SDS011;10411;48.148;7.704;2022-12-18T15:40:32;51.13;;;38.20;;
20505;SDS011;10411;48.148;7.704;2022-12-18T15:42:58;53.53;;;38.73;;
20505;SDS011;10411;48.148;7.704;2022-12-18T15:45:43;46.50;;;37.87;;
20505;SDS011;10411;48.148;7.704;2022-12-18T15:48:14;47.10;;;37.53;;
20505;SDS011;10411;48.148;7.704;2022-12-18T15:50:41;48.03;;;36.47;;
20505;SDS011;10411;48.148;7.704;2022-12-18T15:53:07;49.33;;;38.07;;
20505;SDS011;10411;48.148;7.704;2022-12-18T15:55:34;53.93;;;39.57;;
20505;SDS011;10411;48.148;7.704;2022-12-18T15:58:18;50.10;;;39.27;;
20505;SDS011;10411;48.148;7.704;2022-12-18T16:00:45;45.57;;;37.33;;
20505;SDS011;10411;48.148;7.704;2022-12-18T16:03:11;44.63;;;36.73;;
20505;SDS011;10411;48.148;7.704;2022-12-18T16:05:37;45.90;;;36.83;;
20505;SDS011;10411;48.148;7.704;2022-12-18T16:08:03;45.27;;;36.07;;
20505;SDS011;10411;48.148;7.704;2022-12-18T16:10:29;44.03;;;35.13;;
20505;SDS011;10411;48.148;7.704;2022-12-18T16:12:55;50.23;;;35.90;;
20505;SDS011;10411;48.148;7.704;2022-12-18T16:15:21;47.13;;;37.23;;
20505;SDS011;10411;48.148;7.704;2022-12-18T16:17:47;50.43;;;37.47;;
20505;SDS011;10411;48.148;7.704;2022-12-18T16:20:17;50.23;;;38.13;;
20505;SDS011;10411;48.148;7.704;2022-12-18T16:22:43;52.73;;;40.10;;
20505;SDS011;10411;48.148;7.704;2022-12-18T16:27:43;49.43;;;38.03;;
20505;SDS011;10411;48.148;7.704;2022-12-18T16:30:12;50.93;;;38.73;;
20505;SDS011;10411;48.148;7.704;2022-12-18T16:32:38;53.03;;;38.57;;
20505;SDS011;10411;48.148;7.704;2022-12-18T16:35:04;52.63;;;39.20;;
20505;SDS011;10411;48.148;7.704;2022-12-18T16:37:31;53.37;;;40.40;;
20505;SDS011;10411;48.148;7.704;2022-12-18T16:39:57;55.37;;;41.13;;
20505;SDS011;10411;48.148;7.704;2022-12-18T16:42:23;53.53;;;39.73;;
20505;SDS011;10411;48.148;7.704;2022-12-18T16:44:49;50.43;;;37.43;;